Time;durP1;ratioP1;P1;durP2;ratioP2;P2;SDS_P1;SDS_P2;PMS_P1;PMS_P2;Temp;Humidity;BMP_temperature;BMP_pressure;BME280_temperature;BME280_humidity;BME280_pressure;Samples;Min_cycle;Max_cycle;Signal;HPM_P1;HPM_P2
2024/01/29 00:04:58;;;;;;;5.18;2.33;;;;;;;17.47;39.98;102392.41;16117375;19;130512;-66
2024/01/29 00:10:22;;;;;;;3.45;1.58;;;;;;;17.45;39.96;102379.81;16119109;19;129661;-66
2024/01/29 00:15:44;;;;;;;2.90;1.83;;;;;;;17.41;39.38;102382.13;16119223;19;131169;-66
2024/01/29 00:21:06;;;;;;;4.28;1.70;;;;;;;17.39;39.45;102378.72;16120322;19;129609;-66
2024/01/29 00:26:28;;;;;;;4.75;1.65;;;;;;;17.36;39.44;102379.97;16117529;19;130845;-66
2024/01/29 00:31:50;;;;;;;2.45;1.50;;;;;;;17.35;39.98;102377.44;16126095;19;128981;-66
2024/01/29 00:37:12;;;;;;;5.82;1.40;;;;;;;17.32;39.83;102366.75;16118561;19;130796;-66
2024/01/29 00:42:34;;;;;;;2.40;1.40;;;;;;;17.30;39.79;102379.94;16117153;19;129587;-66
2024/01/29 00:47:56;;;;;;;2.97;1.23;;;;;;;17.29;39.92;102380.97;16115048;19;129365;-66
2024/01/29 00:53:18;;;;;;;2.33;1.15;;;;;;;17.26;39.76;102375.84;16118350;19;129757;-67
2024/01/29 00:58:43;;;;;;;1.10;0.82;;;;;;;17.25;39.77;102377.78;16116028;19;130160;-66
2024/01/29 01:04:05;;;;;;;2.80;1.20;;;;;;;17.22;39.76;102389.22;16116745;19;130089;-66
2024/01/29 01:09:27;;;;;;;2.22;1.25;;;;;;;17.19;39.95;102384.97;16116110;19;129681;-66
2024/01/29 01:14:49;;;;;;;2.58;1.23;;;;;;;17.17;39.89;102392.59;16113579;19;129578;-68
2024/01/29 01:20:12;;;;;;;2.58;1.10;;;;;;;17.15;39.87;102399.41;16116493;19;129511;-66
2024/01/29 01:25:34;;;;;;;2.38;1.00;;;;;;;17.13;39.60;102396.81;16117318;19;129649;-69
2024/01/29 01:30:56;;;;;;;1.75;1.08;;;;;;;17.11;39.69;102398.91;16115281;19;129307;-67
2024/01/29 01:36:18;;;;;;;1.60;0.95;;;;;;;17.10;40.04;102396.38;16115803;19;129964;-67
2024/01/29 01:41:47;;;;;;;2.17;0.90;;;;;;;17.09;39.81;102398.28;16114203;19;130667;-68
2024/01/29 01:47:09;;;;;;;3.78;1.20;;;;;;;17.05;39.70;102405.25;16114296;19;131880;-66
2024/01/29 01:52:31;;;;;;;1.27;1.10;;;;;;;17.02;40.12;102411.19;16117032;19;129694;-66
2024/01/29 01:57:53;;;;;;;2.53;1.25;;;;;;;17.00;39.82;102410.53;16109798;19;130649;-66
2024/01/29 02:03:16;;;;;;;2.50;1.10;;;;;;;16.99;40.02;102414.34;16113516;19;130202;-66
2024/01/29 02:08:39;;;;;;;2.17;0.90;;;;;;;16.98;39.74;102402.44;16118579;19;131405;-66
2024/01/29 02:14:04;;;;;;;1.13;0.65;;;;;;;16.97;39.81;102392.44;16124979;19;131712;-66
2024/01/29 02:19:26;;;;;;;2.03;0.87;;;;;;;16.97;40.06;102402.66;16129354;19;129325;-66
2024/01/29 02:24:48;;;;;;;0.55;0.45;;;;;;;16.96;39.91;102398.16;16126539;19;130800;-66
2024/01/29 02:30:11;;;;;;;0.73;0.55;;;;;;;16.95;40.09;102402.81;16125087;19;129741;-65
2024/01/29 02:35:32;;;;;;;0.40;0.40;;;;;;;16.92;40.14;102398.56;16128516;19;131716;-66
2024/01/29 02:40:54;;;;;;;0.70;0.40;;;;;;;16.92;39.87;102406.00;16125013;19;129496;-66
2024/01/29 02:46:18;;;;;;;2.72;0.50;;;;;;;16.91;39.83;102407.06;16125763;19;130002;-66
2024/01/29 02:51:40;;;;;;;0.30;0.30;;;;;;;16.90;39.83;102414.47;16120307;19;129562;-66
2024/01/29 02:57:02;;;;;;;0.73;0.40;;;;;;;16.87;39.72;102401.06;16121000;19;130979;-66
2024/01/29 03:02:24;;;;;;;0.38;0.30;;;;;;;16.86;39.66;102404.88;16124327;19;129906;-66
2024/01/29 03:07:46;;;;;;;0.30;0.30;;;;;;;16.84;39.95;102398.72;16117722;19;131040;-66
2024/01/29 03:13:08;;;;;;;1.63;0.60;;;;;;;16.81;39.93;102399.09;16122943;19;130790;-67
2024/01/29 03:18:30;;;;;;;0.57;0.40;;;;;;;16.77;39.89;102408.81;16120840;19;129937;-66
2024/01/29 03:23:52;;;;;;;2.53;0.50;;;;;;;16.74;39.82;102407.31;16123431;19;130082;-66
2024/01/29 03:29:14;;;;;;;0.93;0.40;;;;;;;16.73;40.15;102402.00;16120954;19;129662;-66
2024/01/29 03:34:40;;;;;;;0.40;0.30;;;;;;;16.71;40.21;102415.16;16120058;19;129464;-66
2024/01/29 03:40:04;;;;;;;0.30;0.30;;;;;;;16.67;39.87;102406.41;16118109;19;130509;-66
2024/01/29 03:45:26;;;;;;;0.82;0.40;;;;;;;16.66;39.85;102412.09;16116864;19;131531;-66
2024/01/29 03:50:48;;;;;;;1.15;0.50;;;;;;;16.62;40.08;102418.00;16121104;19;130385;-66
2024/01/29 03:56:10;;;;;;;0.77;0.50;;;;;;;16.60;40.21;102420.13;16119877;19;130545;-66
2024/01/29 04:01:32;;;;;;;0.63;0.50;;;;;;;16.58;40.16;102416.69;16118883;19;129452;-66
2024/01/29 04:06:54;;;;;;;0.43;0.40;;;;;;;16.57;39.90;102419.63;16118556;19;130699;-66
2024/01/29 04:12:17;;;;;;;0.60;0.40;;;;;;;16.55;39.91;102419.00;16120577;19;130773;-66
2024/01/29 04:17:39;;;;;;;1.95;0.40;;;;;;;16.54;39.88;102422.81;16121068;19;129875;-66
2024/01/29 04:23:01;;;;;;;0.77;0.50;;;;;;;16.52;40.14;102428.50;16117174;19;129627;-68
2024/01/29 04:28:23;;;;;;;1.42;0.60;;;;;;;16.50;39.78;102436.13;16115046;19;129604;-65
2024/01/29 04:33:45;;;;;;;0.60;0.50;;;;;;;16.49;39.99;102420.63;16117667;19;131276;-66
2024/01/29 04:39:07;;;;;;;0.70;0.65;;;;;;;16.47;40.09;102415.28;16116838;19;129944;-66
2024/01/29 04:44:29;;;;;;;0.80;0.60;;;;;;;16.45;39.89;102416.53;16114076;19;130465;-66
2024/01/29 04:49:51;;;;;;;0.50;0.45;;;;;;;16.45;40.07;102430.34;16119744;19;130858;-66
2024/01/29 04:55:13;;;;;;;0.70;0.50;;;;;;;16.43;39.98;102437.97;16114470;19;130747;-66
2024/01/29 05:00:35;;;;;;;2.17;0.47;;;;;;;16.41;40.07;102446.47;16113156;19;131461;-66
2024/01/29 05:05:57;;;;;;;0.93;0.63;;;;;;;16.40;39.79;102443.88;16115147;19;129783;-67
2024/01/29 05:11:19;;;;;;;0.70;0.60;;;;;;;16.39;40.10;102451.31;16117202;19;129944;-66
2024/01/29 05:16:41;;;;;;;0.60;0.50;;;;;;;16.38;40.01;102448.75;16113092;19;129577;-67
2024/01/29 05:22:03;;;;;;;1.30;0.73;;;;;;;16.36;40.02;102456.38;16115517;19;129383;-66
2024/01/29 05:27:25;;;;;;;0.57;0.57;;;;;;;16.35;40.07;102449.16;16117550;19;129570;-66
2024/01/29 05:32:47;;;;;;;1.00;0.60;;;;;;;16.34;39.91;102447.44;16111140;19;131860;-67
2024/01/29 05:38:09;;;;;;;0.95;0.63;;;;;;;16.32;39.99;102445.72;16112547;19;131244;-68
2024/01/29 05:43:31;;;;;;;0.73;0.60;;;;;;;16.31;39.97;102454.19;16112497;19;130967;-68
2024/01/29 05:48:53;;;;;;;0.63;0.45;;;;;;;16.30;39.98;102452.50;16112124;19;130187;-68
2024/01/29 05:54:15;;;;;;;0.50;0.50;;;;;;;16.28;40.07;102455.44;16109507;19;130203;-67
2024/01/29 05:59:43;;;;;;;0.60;0.50;;;;;;;16.29;40.23;102459.06;16112609;19;130434;-66
2024/01/29 06:05:05;;;;;;;0.57;0.47;;;;;;;16.34;40.21;102475.91;16110316;19;130336;-66
2024/01/29 06:10:27;;;;;;;1.38;0.55;;;;;;;16.44;39.88;102467.31;16111756;19;130397;-67
2024/01/29 06:15:50;;;;;;;1.40;0.60;;;;;;;16.57;39.82;102470.25;16108201;19;129644;-67
2024/01/29 06:21:12;;;;;;;5.55;0.77;;;;;;;16.72;40.18;102463.84;16084098;19;130361;-65
2024/01/29 06:26:35;;;;;;;6.20;1.40;;;;;;;16.82;40.08;102472.69;16103949;19;129397;-64
2024/01/29 06:31:57;;;;;;;4.80;1.00;;;;;;;16.95;40.59;102476.63;16108123;19;130556;-66
2024/01/29 06:37:19;;;;;;;3.92;0.98;;;;;;;17.10;40.45;102480.19;16103920;19;131092;-68
2024/01/29 06:42:41;;;;;;;1.98;0.90;;;;;;;17.24;40.91;102495.00;16106017;19;130067;-67
2024/01/29 06:48:03;;;;;;;4.03;0.95;;;;;;;17.43;40.92;102485.16;16104739;19;129635;-64
2024/01/29 06:53:25;;;;;;;7.55;1.25;;;;;;;17.58;40.51;102490.63;16113147;19;130824;-66
2024/01/29 06:58:47;;;;;;;11.75;1.40;;;;;;;17.70;39.74;102490.94;16115054;19;132684;-66
2024/01/29 07:04:09;;;;;;;6.03;1.15;;;;;;;17.77;40.08;102513.13;16122043;19;131275;-66
2024/01/29 07:09:32;;;;;;;5.75;0.98;;;;;;;17.81;39.33;102514.41;16123771;19;130240;-66
2024/01/29 07:14:57;;;;;;;6.18;2.03;;;;;;;17.80;39.13;102513.56;16119286;19;130302;-65
2024/01/29 07:20:19;;;;;;;4.93;1.50;;;;;;;17.79;38.81;102522.94;16119315;19;130172;-67
2024/01/29 07:25:41;;;;;;;2.65;1.20;;;;;;;17.77;39.08;102533.34;16116881;19;130588;-66
2024/01/29 07:31:03;;;;;;;8.20;1.10;;;;;;;17.76;38.65;102536.31;16120995;19;130971;-66
2024/01/29 07:36:26;;;;;;;5.78;1.35;;;;;;;17.76;38.98;102539.09;16120402;19;130862;-66
2024/01/29 07:41:48;;;;;;;3.50;1.23;;;;;;;17.84;38.93;102542.56;16121249;19;134645;-65
2024/01/29 07:47:10;;;;;;;3.03;1.30;;;;;;;17.97;38.42;102547.34;16119719;19;129400;-66
2024/01/29 07:52:32;;;;;;;5.63;1.52;;;;;;;18.07;38.54;102552.53;16117372;19;129713;-67
2024/01/29 07:57:54;;;;;;;9.18;1.13;;;;;;;18.18;38.12;102553.00;16117150;19;130112;-66
2024/01/29 08:03:16;;;;;;;4.78;1.20;;;;;;;18.24;38.26;102557.72;16116684;19;129911;-66
2024/01/29 08:08:38;;;;;;;3.25;1.20;;;;;;;18.31;37.77;102555.88;16117541;19;129430;-66
2024/01/29 08:14:00;;;;;;;3.15;1.25;;;;;;;18.36;37.78;102558.88;16115185;19;129439;-66
2024/01/29 08:19:22;;;;;;;3.00;1.08;;;;;;;18.44;37.49;102558.75;16115254;19;130833;-66
2024/01/29 08:24:46;;;;;;;1.88;1.05;;;;;;;18.67;37.10;102563.13;16117676;19;130613;-66
2024/01/29 08:30:09;;;;;;;2.33;0.80;;;;;;;18.88;36.94;102542.72;16117506;19;130442;-67
2024/01/29 08:35:31;;;;;;;3.97;1.00;;;;;;;19.05;36.69;102545.09;16118932;19;130012;-66
2024/01/29 08:40:54;;;;;;;6.85;2.03;;;;;;;19.10;36.36;102536.13;16110491;19;130855;-66
2024/01/29 08:46:17;;;;;;;6.10;1.38;;;;;;;19.11;36.54;102529.53;16115647;19;131498;-66
2024/01/29 08:51:39;;;;;;;2.70;1.13;;;;;;;19.21;35.92;102530.88;16110527;19;129685;-66
2024/01/29 08:57:02;;;;;;;3.45;1.55;;;;;;;19.49;36.12;102520.63;16111805;19;130442;-66
2024/01/29 09:02:27;;;;;;;3.15;1.05;;;;;;;19.81;35.34;102534.72;16110959;19;130477;-66
2024/01/29 09:07:50;;;;;;;5.85;1.27;;;;;;;20.00;35.37;102527.44;16111594;19;131388;-66
2024/01/29 09:13:13;;;;;;;8.45;1.23;;;;;;;20.23;34.99;102542.81;16114573;19;130751;-66
2024/01/29 09:18:35;;;;;;;5.90;1.65;;;;;;;20.58;34.35;102540.53;16111594;19;129773;-65
2024/01/29 09:23:57;;;;;;;11.00;3.08;;;;;;;20.89;34.76;102550.03;16113240;19;130918;-67
2024/01/29 09:29:19;;;;;;;8.32;2.70;;;;;;;21.17;34.42;102554.34;16111347;19;133216;-66
2024/01/29 09:34:41;;;;;;;9.68;2.40;;;;;;;21.48;33.98;102560.13;16113503;19;129790;-66
2024/01/29 09:40:03;;;;;;;9.25;2.25;;;;;;;21.73;33.48;102562.09;16110428;19;129386;-66
2024/01/29 09:45:27;;;;;;;11.90;2.10;;;;;;;22.00;32.97;102573.88;16110879;19;129509;-67
2024/01/29 09:50:49;;;;;;;4.47;2.03;;;;;;;22.28;33.02;102567.81;16112666;19;130980;-70
2024/01/29 09:56:11;;;;;;;5.88;1.88;;;;;;;22.71;32.44;102565.16;16116334;19;129312;-70
2024/01/29 10:01:35;;;;;;;4.00;1.73;;;;;;;23.14;31.66;102566.13;16114481;19;130642;-70
2024/01/29 10:06:58;;;;;;;4.80;1.60;;;;;;;23.67;31.13;102575.63;16109723;19;131505;-67
2024/01/29 10:12:22;;;;;;;16.73;3.03;;;;;;;23.97;29.70;102581.09;16108680;19;129490;-66
2024/01/29 10:17:44;;;;;;;11.45;2.75;;;;;;;24.33;28.92;102583.06;16107506;19;130228;-66
2024/01/29 10:23:06;;;;;;;8.40;2.00;;;;;;;24.63;28.61;102585.66;16109133;19;130483;-66
2024/01/29 10:28:28;;;;;;;12.52;2.28;;;;;;;24.76;28.44;102584.50;16113216;19;129944;-66
2024/01/29 10:33:50;;;;;;;12.32;2.13;;;;;;;24.82;28.55;102580.75;16119622;19;129512;-65
2024/01/29 10:39:12;;;;;;;6.30;1.83;;;;;;;24.75;28.22;102587.56;16114911;19;129463;-66
2024/01/29 10:44:37;;;;;;;4.85;2.10;;;;;;;24.50;28.44;102589.56;16120677;19;131259;-66
2024/01/29 10:50:00;;;;;;;7.80;2.42;;;;;;;24.27;28.81;102593.28;16121842;19;130682;-66
2024/01/29 10:55:23;;;;;;;8.05;1.88;;;;;;;24.04;29.40;102580.13;16122591;19;130587;-66
2024/01/29 11:00:45;;;;;;;5.43;1.83;;;;;;;23.84;29.67;102580.47;16118515;19;130668;-66
2024/01/29 11:06:23;;;;;;;3.47;1.50;;;;;;;23.73;29.88;102579.38;16123215;19;131024;-66
2024/01/29 11:11:46;;;;;;;3.60;1.55;;;;;;;23.74;29.75;102578.31;16117008;19;130359;-65
2024/01/29 11:17:08;;;;;;;3.08;1.90;;;;;;;23.93;29.76;102573.44;16120967;19;129938;-66
2024/01/29 11:22:37;;;;;;;3.13;1.70;;;;;;;24.33;28.96;102571.88;16121225;19;131168;-66
2024/01/29 11:27:59;;;;;;;6.70;1.50;;;;;;;24.69;28.91;102567.88;16115362;19;130642;-65
2024/01/29 11:33:22;;;;;;;4.90;1.42;;;;;;;24.96;28.80;102564.50;16117802;19;129625;-66
2024/01/29 11:38:44;;;;;;;2.08;1.48;;;;;;;25.49;27.67;102567.16;16115029;19;131244;-66
2024/01/29 11:44:06;;;;;;;4.18;1.35;;;;;;;25.86;27.48;102557.38;16120838;19;129491;-66
2024/01/29 11:49:28;;;;;;;7.72;1.50;;;;;;;26.25;27.04;102549.88;16117486;19;130693;-66
2024/01/29 11:54:51;;;;;;;5.78;1.58;;;;;;;26.57;26.56;102542.69;16118318;19;131322;-67
2024/01/29 12:00:19;;;;;;;4.68;1.30;;;;;;;26.74;26.16;102544.56;16120615;19;129787;-67
2024/01/29 12:05:41;;;;;;;2.50;1.48;;;;;;;26.85;26.39;102537.97;16116247;19;129568;-67
2024/01/29 12:11:03;;;;;;;2.50;1.70;;;;;;;26.81;26.27;102543.28;16116742;19;130200;-65
2024/01/29 12:16:27;;;;;;;4.72;1.65;;;;;;;26.91;25.95;102538.88;16116939;19;129720;-67
2024/01/29 12:21:49;;;;;;;6.15;1.73;;;;;;;26.95;25.81;102531.63;16117560;19;129456;-66
2024/01/29 12:27:14;;;;;;;6.70;1.88;;;;;;;26.96;25.55;102533.31;16116785;19;131242;-67
2024/01/29 12:32:39;;;;;;;5.93;1.70;;;;;;;26.85;25.79;102518.31;16114054;19;129684;-65
2024/01/29 12:38:08;;;;;;;2.60;1.40;;;;;;;26.72;25.78;102528.81;16114174;19;129882;-66
2024/01/29 12:43:30;;;;;;;4.47;1.55;;;;;;;26.27;26.37;102527.16;16115949;19;130531;-66
2024/01/29 12:48:53;;;;;;;2.70;1.50;;;;;;;25.85;26.61;102513.66;16114889;19;129827;-66
2024/01/29 12:54:15;;;;;;;4.78;1.50;;;;;;;25.70;27.08;102514.25;16112315;19;129929;-66
2024/01/29 12:59:37;;;;;;;3.00;1.30;;;;;;;25.61;26.97;102509.09;16114399;19;129303;-66
2024/01/29 13:04:59;;;;;;;4.03;1.90;;;;;;;25.53;27.28;102508.66;16113104;19;129220;-66
2024/01/29 13:10:27;;;;;;;2.85;1.25;;;;;;;25.47;27.08;102505.78;16113426;19;129425;-67
2024/01/29 13:15:52;;;;;;;5.55;1.80;;;;;;;25.34;27.38;102503.31;16109098;19;131665;-67
2024/01/29 13:21:17;;;;;;;4.63;1.50;;;;;;;25.18;27.42;102500.25;16112131;19;131459;-66
2024/01/29 13:26:40;;;;;;;;;;;;;;;24.93;27.64;102503.41;16112439;19;130433;-67
2024/01/29 13:32:02;;;;;;;3.58;1.88;;;;;;;24.80;27.86;102498.97;16110048;19;129535;-67
2024/01/29 13:37:24;;;;;;;1.90;1.48;;;;;;;24.51;28.19;102500.91;16112344;19;129645;-66
2024/01/29 13:42:48;;;;;;;2.22;1.55;;;;;;;24.32;28.25;102506.66;16108801;19;132166;-67
2024/01/29 13:48:10;;;;;;;6.05;1.65;;;;;;;24.08;28.25;102486.28;16109940;19;129513;-66
2024/01/29 13:53:32;;;;;;;1.88;1.52;;;;;;;23.92;28.73;102488.72;16111311;19;130653;-66
2024/01/29 13:58:54;;;;;;;4.65;1.60;;;;;;;23.63;29.38;102490.56;16109461;19;129760;-66
2024/01/29 14:04:15;;;;;;;3.13;1.70;;;;;;;23.39;29.30;102484.06;16121278;19;129638;-66
2024/01/29 14:09:37;;;;;;;2.72;1.33;;;;;;;23.07;29.64;102481.59;16126565;19;131547;-66
2024/01/29 14:15:03;;;;;;;2.25;1.50;;;;;;;22.76;29.71;102475.19;16123956;19;131349;-66
2024/01/29 14:20:25;;;;;;;3.30;1.58;;;;;;;22.44;30.68;102473.47;16126242;19;130175;-67
2024/01/29 14:25:47;;;;;;;3.17;1.80;;;;;;;22.16;31.12;102460.94;16122725;19;129597;-66
2024/01/29 14:31:09;;;;;;;4.30;1.70;;;;;;;21.91;31.16;102461.00;16124219;19;130305;-66
2024/01/29 14:36:31;;;;;;;3.33;1.60;;;;;;;21.68;31.61;102473.66;16125034;19;131818;-66
2024/01/29 14:41:53;;;;;;;3.45;1.85;;;;;;;21.46;32.12;102478.78;16120752;19;130072;-66
2024/01/29 14:47:15;;;;;;;2.10;1.20;;;;;;;21.27;32.13;102486.22;16121131;19;129473;-66
2024/01/29 14:52:38;;;;;;;2.67;1.30;;;;;;;21.08;32.31;102486.13;16118821;19;129685;-66
2024/01/29 14:58:00;;;;;;;2.75;1.60;;;;;;;20.90;32.72;102485.00;16119917;19;131200;-66
2024/01/29 15:03:22;;;;;;;2.40;1.23;;;;;;;20.73;33.28;102492.13;16122991;19;129549;-66
2024/01/29 15:08:44;;;;;;;5.03;1.15;;;;;;;20.57;33.28;102493.50;16118244;19;129657;-66
2024/01/29 15:14:06;;;;;;;1.48;1.08;;;;;;;20.42;33.75;102502.13;16122010;19;129681;-67
2024/01/29 15:19:28;;;;;;;2.15;1.30;;;;;;;20.26;33.98;102509.88;16122910;19;130778;-66
2024/01/29 15:24:50;;;;;;;2.92;1.27;;;;;;;20.11;34.22;102501.81;16117859;19;129778;-66
2024/01/29 15:30:12;;;;;;;1.00;0.90;;;;;;;19.98;34.21;102501.81;16122866;19;129545;-66
2024/01/29 15:35:34;;;;;;;1.67;1.08;;;;;;;19.86;34.19;102521.03;16117253;19;130049;-66
2024/01/29 15:40:57;;;;;;;1.48;1.20;;;;;;;19.74;34.36;102526.41;16118250;19;129724;-66
2024/01/29 15:46:19;;;;;;;1.02;0.80;;;;;;;19.60;34.68;102528.31;16116847;19;131134;-67
2024/01/29 15:51:41;;;;;;;2.15;1.27;;;;;;;19.52;35.03;102525.75;16118127;19;131501;-67
2024/01/29 15:57:07;;;;;;;0.90;0.80;;;;;;;19.43;35.16;102521.50;16120987;19;129357;-67
2024/01/29 16:02:29;;;;;;;1.80;1.02;;;;;;;19.36;35.59;102527.03;16113991;19;132712;-67
2024/01/29 16:07:51;;;;;;;11.48;2.00;;;;;;;19.36;35.74;102532.59;16117585;19;130084;-66
2024/01/29 16:13:13;;;;;;;42.60;6.35;;;;;;;19.41;36.04;102524.47;16117480;19;129568;-63
2024/01/29 16:18:35;;;;;;;15.68;3.40;;;;;;;19.50;35.77;102523.22;16116148;19;130654;-65
2024/01/29 16:23:57;;;;;;;23.08;3.47;;;;;;;19.60;36.27;102522.75;16110287;19;129791;-64
2024/01/29 16:29:19;;;;;;;8.30;2.75;;;;;;;19.68;37.87;102530.03;16113586;19;129314;-62
2024/01/29 16:34:43;;;;;;;17.45;4.38;;;;;;;19.73;37.57;102537.72;16109936;19;130593;-63
2024/01/29 16:40:06;;;;;;;24.55;3.80;;;;;;;19.74;38.19;102550.53;16114409;19;130507;-64
2024/01/29 16:45:31;;;;;;;17.10;3.10;;;;;;;19.73;38.53;102546.03;16116413;19;131228;-64
2024/01/29 16:50:53;;;;;;;9.55;2.50;;;;;;;19.69;38.72;102549.22;16116825;19;130620;-63
2024/01/29 16:56:26;;;;;;;15.90;2.72;;;;;;;19.66;39.10;102546.91;16113137;19;130273;-63
2024/01/29 17:01:48;;;;;;;17.75;2.60;;;;;;;19.58;38.86;102549.03;16112971;19;130727;-63
2024/01/29 17:07:12;;;;;;;22.75;3.05;;;;;;;19.53;39.16;102555.25;16118083;19;129702;-63
2024/01/29 17:12:34;;;;;;;18.33;2.95;;;;;;;19.49;39.35;102565.91;16110684;19;129688;-64
2024/01/29 17:17:56;;;;;;;16.55;2.70;;;;;;;19.49;40.09;102562.25;16110210;19;129526;-63
2024/01/29 17:23:18;;;;;;;11.32;2.55;;;;;;;19.49;39.65;102556.72;16113511;19;132044;-65
2024/01/29 17:28:43;;;;;;;15.18;2.70;;;;;;;19.52;39.29;102564.63;16109492;19;130708;-66
2024/01/29 17:34:05;;;;;;;6.25;2.25;;;;;;;19.53;39.17;102560.78;16112317;19;129730;-66
2024/01/29 17:39:27;;;;;;;10.52;1.95;;;;;;;19.50;39.45;102572.31;16113417;19;130029;-66
2024/01/29 17:44:49;;;;;;;7.97;1.92;;;;;;;19.46;39.59;102566.34;16107229;19;129937;-66
2024/01/29 17:50:11;;;;;;;9.90;1.90;;;;;;;19.41;40.13;102579.13;16114837;19;129952;-67
2024/01/29 17:55:33;;;;;;;7.30;1.98;;;;;;;19.36;39.71;102572.28;16114941;19;131427;-69
2024/01/29 18:00:55;;;;;;;13.55;2.60;;;;;;;19.32;39.89;102582.09;16113436;19;131276;-67
2024/01/29 18:06:17;;;;;;;14.30;2.67;;;;;;;19.28;39.89;102580.81;16112333;19;129356;-68
2024/01/29 18:11:39;;;;;;;25.92;2.88;;;;;;;19.22;40.03;102581.66;16110220;19;131866;-67
2024/01/29 18:17:01;;;;;;;34.88;3.85;;;;;;;19.17;39.69;102579.47;16108145;19;129619;-68
2024/01/29 18:22:23;;;;;;;32.42;3.30;;;;;;;19.11;39.93;102572.00;16115323;19;130111;-69
2024/01/29 18:27:46;;;;;;;28.10;3.40;;;;;;;19.05;39.99;102582.03;16127742;19;129631;-64
2024/01/29 18:33:08;;;;;;;40.63;3.78;;;;;;;19.01;39.88;102586.25;16146849;19;130779;-65
2024/01/29 18:38:30;;;;;;;52.50;5.57;;;;;;;18.99;40.58;102580.06;16138195;19;131237;-66
2024/01/29 18:43:52;;;;;;;48.42;5.45;;;;;;;19.02;40.33;102576.88;16106549;19;129965;-66
2024/01/29 18:49:14;;;;;;;55.30;5.50;;;;;;;19.05;40.31;102573.69;16108409;19;129864;-67
2024/01/29 18:54:36;;;;;;;44.17;5.28;;;;;;;19.04;40.54;102574.75;16135172;19;131348;-67
2024/01/29 18:59:58;;;;;;;35.67;4.93;;;;;;;19.00;39.73;102579.00;16129100;19;129149;-64
2024/01/29 19:05:20;;;;;;;26.33;4.15;;;;;;;18.94;39.89;102574.31;16127463;19;129834;-64
2024/01/29 19:10:43;;;;;;;30.05;3.55;;;;;;;18.88;39.97;102576.00;16124297;19;133465;-64
2024/01/29 19:16:05;;;;;;;31.42;3.55;;;;;;;18.83;39.73;102574.91;16128567;19;129562;-63
2024/01/29 19:21:27;;;;;;;26.17;3.33;;;;;;;18.76;40.20;102572.94;16127695;19;131117;-65
2024/01/29 19:26:49;;;;;;;22.63;2.97;;;;;;;18.72;39.92;102577.19;16122263;19;129800;-65
2024/01/29 19:32:11;;;;;;;21.40;3.17;;;;;;;18.68;39.89;102577.81;16137593;19;131112;-66
2024/01/29 19:37:33;;;;;;;16.65;3.47;;;;;;;18.63;40.19;102572.06;16203238;19;129415;-65
2024/01/29 19:42:55;;;;;;;18.95;3.03;;;;;;;18.59;40.13;102571.59;16199221;19;128691;-64
2024/01/29 19:48:18;;;;;;;20.30;2.80;;;;;;;18.55;40.30;102570.31;16198895;19;128755;-66
2024/01/29 19:53:39;;;;;;;20.48;2.88;;;;;;;18.53;40.65;102569.66;16201747;19;130465;-67
2024/01/29 19:59:01;;;;;;;19.67;2.97;;;;;;;18.52;40.78;102576.25;16195574;19;132586;-65
2024/01/29 20:04:23;;;;;;;30.13;3.65;;;;;;;18.52;41.34;102567.94;16200540;19;129490;-68
2024/01/29 20:09:48;;;;;;;27.05;4.57;;;;;;;18.55;41.75;102564.75;16181278;19;129390;-65
2024/01/29 20:15:10;;;;;;;30.98;4.65;;;;;;;18.58;41.40;102558.81;16141489;19;131014;-66
2024/01/29 20:20:32;;;;;;;30.38;5.20;;;;;;;18.65;41.50;102556.91;16196167;19;129888;-66
2024/01/29 20:25:54;;;;;;;17.50;3.65;;;;;;;18.69;42.08;102554.56;16174166;19;129063;-64
2024/01/29 20:31:23;;;;;;;19.60;3.65;;;;;;;18.75;42.20;102560.16;16153466;19;129766;-65
2024/01/29 20:36:45;;;;;;;25.65;3.85;;;;;;;18.76;41.95;102549.94;16153825;19;129536;-66
2024/01/29 20:42:08;;;;;;;19.38;3.65;;;;;;;18.78;41.84;102553.31;16166899;19;131514;-70
2024/01/29 20:47:30;;;;;;;23.00;4.28;;;;;;;18.75;41.58;102551.84;16156832;19;131376;-64
2024/01/29 20:52:52;;;;;;;18.10;3.03;;;;;;;18.71;41.34;102546.91;16153138;19;129803;-66
2024/01/29 20:58:14;;;;;;;22.10;3.67;;;;;;;18.66;41.47;102561.41;16153518;19;129369;-65
2024/01/29 21:03:36;;;;;;;26.08;3.80;;;;;;;18.60;41.59;102553.91;16145306;19;129635;-65
2024/01/29 21:08:59;;;;;;;23.13;2.80;;;;;;;18.56;41.46;102560.94;16141053;19;131436;-66
2024/01/29 21:14:21;;;;;;;21.70;3.28;;;;;;;18.52;41.87;102565.16;16124497;19;131453;-65
2024/01/29 21:19:42;;;;;;;20.85;3.25;;;;;;;18.48;41.74;102555.53;16114299;19;129529;-66
2024/01/29 21:25:11;;;;;;;17.48;2.78;;;;;;;18.45;41.61;102563.22;16116221;19;130574;-66
2024/01/29 21:30:34;;;;;;;13.95;2.92;;;;;;;18.39;41.30;102552.94;16109675;19;130418;-66
2024/01/29 21:35:56;;;;;;;17.75;2.80;;;;;;;18.34;41.43;102558.22;16113934;19;129777;-66
2024/01/29 21:41:20;;;;;;;14.68;2.53;;;;;;;18.30;41.31;102554.16;16113412;19;129948;-66
2024/01/29 21:46:42;;;;;;;15.13;2.78;;;;;;;18.26;41.14;102550.06;16112492;19;129973;-66
2024/01/29 21:52:05;;;;;;;21.52;3.25;;;;;;;18.22;41.47;102554.31;16111624;19;130443;-65
2024/01/29 21:57:28;;;;;;;15.77;2.83;;;;;;;18.18;41.26;102551.09;16109186;19;129897;-65
2024/01/29 22:02:50;;;;;;;10.55;2.28;;;;;;;18.14;41.56;102553.41;16110069;19;130927;-67
2024/01/29 22:08:12;;;;;;;16.65;2.85;;;;;;;18.10;41.24;102560.41;16109254;19;130096;-70
2024/01/29 22:13:34;;;;;;;16.88;2.92;;;;;;;18.07;41.70;102552.53;16129600;19;130219;-69
2024/01/29 22:18:55;;;;;;;10.77;2.55;;;;;;;18.06;41.98;102547.16;16133315;19;129853;-66
2024/01/29 22:24:19;;;;;;;12.25;2.30;;;;;;;18.04;41.62;102544.63;16114756;19;129714;-65
2024/01/29 22:29:41;;;;;;;13.32;2.13;;;;;;;18.02;42.08;102535.66;16126093;19;130522;-65
2024/01/29 22:35:03;;;;;;;10.90;1.92;;;;;;;17.98;41.72;102540.75;16122615;19;130630;-65
2024/01/29 22:40:25;;;;;;;5.40;1.80;;;;;;;17.95;42.04;102537.53;16119621;19;129734;-64
2024/01/29 22:45:47;;;;;;;8.32;1.90;;;;;;;17.91;41.65;102537.06;16120470;19;130613;-65
2024/01/29 22:51:09;;;;;;;13.48;2.65;;;;;;;17.89;41.78;102544.75;16123954;19;129229;-64
2024/01/29 22:56:31;;;;;;;5.97;1.80;;;;;;;17.85;41.65;102537.88;16121603;19;131276;-65
2024/01/29 23:01:53;;;;;;;7.82;2.17;;;;;;;17.81;42.02;102536.56;16121042;19;137203;-65
2024/01/29 23:07:16;;;;;;;7.18;2.22;;;;;;;17.78;41.74;102542.53;16116890;19;129617;-65
2024/01/29 23:12:38;;;;;;;6.95;1.80;;;;;;;17.74;41.74;102544.81;16120510;19;130615;-64
2024/01/29 23:18:00;;;;;;;2.67;1.58;;;;;;;17.71;42.08;102548.00;16120081;19;130922;-65
2024/01/29 23:23:22;;;;;;;7.65;1.70;;;;;;;17.69;42.04;102552.88;16118287;19;131721;-65
2024/01/29 23:28:45;;;;;;;6.55;1.55;;;;;;;17.67;42.05;102546.69;16115815;19;130506;-65
2024/01/29 23:34:07;;;;;;;7.53;1.65;;;;;;;17.63;41.75;102556.44;16120116;19;131342;-64
2024/01/29 23:39:29;;;;;;;5.43;1.45;;;;;;;17.60;41.61;102549.41;16121179;19;131575;-69
2024/01/29 23:44:51;;;;;;;8.68;2.00;;;;;;;17.58;42.06;102553.44;16119944;19;131731;-70
2024/01/29 23:50:13;;;;;;;6.30;1.70;;;;;;;17.56;41.78;102541.69;16122140;19;129436;-68
2024/01/29 23:55:35;;;;;;;7.60;1.95;;;;;;;17.54;41.65;102548.28;16117053;19;130679;-69
